Time;durP1;ratioP1;P1;durP2;ratioP2;P2;SDS_P1;SDS_P2;PMS_P1;PMS_P2;Temp;Humidity;BMP_temperature;BMP_pressure;BME280_temperature;BME280_humidity;BME280_pressure;Samples;Min_cycle;Max_cycle;Signal;HPM_P1;HPM_P2
2021/08/04 00:00:23;;;;;;;2.70;2.50;;;14.50;99.90;;;;;;492313;241;28480;-73
2021/08/04 00:02:25;;;;;;;3.23;2.93;;;14.50;99.90;;;;;;492323;241;28476;-70
2021/08/04 00:04:26;;;;;;;2.60;2.40;;;14.50;99.90;;;;;;492319;241;28383;-72
2021/08/04 00:06:27;;;;;;;3.20;2.63;;;14.50;99.90;;;;;;492320;241;29289;-70
2021/08/04 00:08:28;;;;;;;2.93;2.73;;;14.50;99.90;;;;;;492309;241;29449;-72
2021/08/04 00:10:30;;;;;;;3.60;2.57;;;14.50;99.90;;;;;;492307;241;28721;-70
2021/08/04 00:12:31;;;;;;;2.73;2.53;;;14.50;99.90;;;;;;492328;241;29023;-70
2021/08/04 00:14:32;;;;;;;2.60;2.40;;;14.50;99.90;;;;;;492308;241;28499;-72
2021/08/04 00:16:33;;;;;;;2.50;2.30;;;14.50;99.90;;;;;;492320;241;28526;-71
2021/08/04 00:18:35;;;;;;;4.10;2.60;;;14.50;99.90;;;;;;492334;241;28422;-71
2021/08/04 00:20:36;;;;;;;2.60;2.40;;;14.50;99.90;;;;;;492326;241;28503;-70
2021/08/04 00:22:37;;;;;;;4.10;3.20;;;14.50;99.90;;;;;;492313;240;28288;-70
2021/08/04 00:24:38;;;;;;;3.17;2.97;;;14.50;99.90;;;;;;492328;241;28378;-71
2021/08/04 00:26:40;;;;;;;3.27;2.97;;;14.50;99.90;;;;;;492332;241;28517;-70
2021/08/04 00:28:41;;;;;;;3.83;3.13;;;14.50;99.90;;;;;;492311;241;28568;-70
2021/08/04 00:30:42;;;;;;;3.00;2.73;;;14.40;99.90;;;;;;492294;241;28600;-70
2021/08/04 00:32:43;;;;;;;2.70;2.50;;;14.40;99.90;;;;;;492314;241;29361;-70
2021/08/04 00:34:45;;;;;;;2.80;2.60;;;14.40;99.90;;;;;;492318;241;29024;-70
2021/08/04 00:36:46;;;;;;;3.00;2.80;;;14.50;99.90;;;;;;492238;241;28917;-70
2021/08/04 00:38:47;;;;;;;3.00;2.70;;;14.40;99.90;;;;;;492252;238;28391;-71
2021/08/04 00:40:48;;;;;;;4.10;3.77;;;14.40;99.90;;;;;;492317;241;28159;-71
2021/08/04 00:42:50;;;;;;;3.60;3.10;;;14.40;99.90;;;;;;492330;241;28571;-70
2021/08/04 00:44:51;;;;;;;3.07;2.87;;;14.40;99.90;;;;;;492329;241;28338;-70
2021/08/04 00:46:53;;;;;;;3.97;3.57;;;;;;;;;;492345;241;28488;-70
2021/08/04 00:48:55;;;;;;;4.07;3.67;;;14.30;99.90;;;;;;492359;241;27699;-69
2021/08/04 00:50:56;;;;;;;2.90;2.70;;;14.40;99.90;;;;;;492344;241;28282;-70
2021/08/04 00:52:57;;;;;;;3.50;3.20;;;14.40;99.90;;;;;;492343;240;28323;-70
2021/08/04 00:54:58;;;;;;;3.37;3.17;;;14.40;99.90;;;;;;492340;241;28400;-70
2021/08/04 00:57:00;;;;;;;3.50;3.20;;;14.40;99.90;;;;;;492326;241;28278;-70
2021/08/04 00:59:01;;;;;;;3.20;2.93;;;14.40;99.90;;;;;;492331;237;28262;-71
2021/08/04 01:01:02;;;;;;;3.00;2.80;;;14.40;99.90;;;;;;492326;241;28186;-70
2021/08/04 01:03:03;;;;;;;2.80;2.60;;;14.40;99.90;;;;;;492328;241;28364;-71
2021/08/04 01:05:05;;;;;;;4.10;3.70;;;14.40;99.90;;;;;;492324;240;28402;-71
2021/08/04 01:07:06;;;;;;;3.40;3.10;;;14.30;99.90;;;;;;492304;241;29059;-71
2021/08/04 01:09:07;;;;;;;3.30;3.00;;;14.30;99.90;;;;;;492316;241;29020;-71
2021/08/04 01:11:08;;;;;;;3.50;3.00;;;14.30;99.90;;;;;;492298;241;28780;-72
2021/08/04 01:13:10;;;;;;;3.40;3.10;;;14.20;99.90;;;;;;492193;241;29098;-71
2021/08/04 01:15:11;;;;;;;3.27;3.07;;;14.20;99.90;;;;;;492315;241;28445;-72
2021/08/04 01:17:12;;;;;;;3.60;3.30;;;14.20;99.90;;;;;;492304;241;28530;-71
2021/08/04 01:19:13;;;;;;;6.20;4.43;;;14.20;99.90;;;;;;492319;241;28393;-70
2021/08/04 01:21:15;;;;;;;3.30;3.00;;;14.30;99.90;;;;;;492322;241;28432;-70
2021/08/04 01:23:16;;;;;;;3.63;3.33;;;14.30;99.90;;;;;;492315;241;28402;-70
2021/08/04 01:25:17;;;;;;;3.43;3.13;;;14.30;99.90;;;;;;492298;241;28405;-72
2021/08/04 01:27:18;;;;;;;4.07;3.67;;;14.30;99.90;;;;;;492324;241;28642;-70
2021/08/04 01:29:20;;;;;;;4.13;3.73;;;14.20;99.90;;;;;;492322;241;28507;-69
2021/08/04 01:31:21;;;;;;;3.67;3.20;;;14.20;99.90;;;;;;492320;241;28370;-70
2021/08/04 01:33:22;;;;;;;5.67;3.80;;;14.20;99.90;;;;;;492326;241;28763;-70
2021/08/04 01:35:23;;;;;;;4.10;3.70;;;14.20;99.90;;;;;;492290;241;28838;-70
2021/08/04 01:37:25;;;;;;;3.83;3.50;;;14.20;99.90;;;;;;492318;241;28999;-69
2021/08/04 01:39:26;;;;;;;4.27;3.87;;;14.20;99.90;;;;;;492313;240;28225;-69
2021/08/04 01:41:27;;;;;;;3.60;3.30;;;14.20;99.90;;;;;;492319;238;28193;-70
2021/08/04 01:43:28;;;;;;;3.77;3.43;;;14.20;99.90;;;;;;492310;241;28249;-70
2021/08/04 01:45:30;;;;;;;4.60;4.00;;;14.20;99.90;;;;;;492311;241;28361;-70
2021/08/04 01:47:31;;;;;;;4.93;4.20;;;14.20;99.90;;;;;;492325;241;28309;-71
2021/08/04 01:49:32;;;;;;;5.83;4.30;;;14.20;99.90;;;;;;492321;241;28420;-72
2021/08/04 01:51:33;;;;;;;4.50;4.10;;;14.20;99.90;;;;;;492293;241;28295;-73
2021/08/04 01:53:35;;;;;;;4.17;3.77;;;14.20;99.90;;;;;;492306;241;28873;-71
2021/08/04 01:55:36;;;;;;;3.70;3.40;;;14.20;99.90;;;;;;492317;241;28911;-71
2021/08/04 01:57:37;;;;;;;3.80;3.50;;;14.20;99.90;;;;;;491966;241;29703;-70
2021/08/04 01:59:39;;;;;;;3.67;3.37;;;14.20;99.90;;;;;;491932;241;28839;-70
2021/08/04 02:01:40;;;;;;;5.27;4.00;;;14.20;99.90;;;;;;492304;241;28773;-71
2021/08/04 02:03:41;;;;;;;4.17;3.77;;;14.20;99.90;;;;;;492320;241;28262;-71
2021/08/04 02:05:42;;;;;;;3.97;3.67;;;14.20;99.90;;;;;;492314;241;28412;-72
2021/08/04 02:07:43;;;;;;;3.87;3.57;;;14.10;99.90;;;;;;492327;241;28421;-71
2021/08/04 02:09:45;;;;;;;3.97;3.60;;;14.10;99.90;;;;;;492331;241;28345;-70
2021/08/04 02:11:46;;;;;;;3.53;3.23;;;14.20;99.90;;;;;;492336;241;28422;-72
2021/08/04 02:13:47;;;;;;;4.17;3.87;;;14.10;99.90;;;;;;492329;241;28056;-71
2021/08/04 02:15:48;;;;;;;3.37;3.10;;;14.10;99.90;;;;;;492326;241;28108;-71
2021/08/04 02:17:50;;;;;;;3.80;3.47;;;14.10;99.90;;;;;;492336;241;28310;-70
2021/08/04 02:19:51;;;;;;;3.73;3.40;;;14.10;99.90;;;;;;492317;241;28281;-70
2021/08/04 02:21:52;;;;;;;3.60;3.30;;;14.20;99.90;;;;;;492330;241;28886;-70
2021/08/04 02:23:53;;;;;;;3.07;2.87;;;14.20;99.90;;;;;;492305;241;28722;-70
2021/08/04 02:25:55;;;;;;;3.90;3.60;;;14.20;99.90;;;;;;492314;240;28952;-72
2021/08/04 02:27:56;;;;;;;4.50;3.80;;;14.10;99.90;;;;;;492321;241;28088;-70
2021/08/04 02:29:57;;;;;;;3.30;3.00;;;14.10;99.90;;;;;;492318;241;28484;-71
2021/08/04 02:31:58;;;;;;;3.50;3.20;;;14.20;99.90;;;;;;492304;241;28525;-72
2021/08/04 02:34:00;;;;;;;3.90;3.50;;;14.20;99.90;;;;;;492301;241;28772;-70
2021/08/04 02:36:01;;;;;;;3.63;3.33;;;14.20;99.90;;;;;;492316;241;28362;-70
2021/08/04 02:38:02;;;;;;;5.03;4.47;;;14.20;99.90;;;;;;492334;241;28231;-70
2021/08/04 02:40:03;;;;;;;4.17;3.83;;;14.10;99.90;;;;;;492338;241;28159;-70
2021/08/04 02:42:05;;;;;;;4.27;3.87;;;14.10;99.90;;;;;;491967;241;28505;-71
2021/08/04 02:44:06;;;;;;;4.17;3.77;;;14.10;99.90;;;;;;492308;241;28454;-70
2021/08/04 02:46:07;;;;;;;4.50;4.10;;;14.10;99.90;;;;;;492261;241;28986;-70
2021/08/04 02:48:08;;;;;;;4.00;3.60;;;14.10;99.90;;;;;;492342;241;29026;-70
2021/08/04 02:50:10;;;;;;;4.20;3.80;;;14.10;99.90;;;;;;492333;241;28817;-70
2021/08/04 02:52:11;;;;;;;4.93;4.20;;;14.10;99.90;;;;;;492341;241;28995;-70
2021/08/04 02:54:12;;;;;;;6.23;4.47;;;14.10;99.90;;;;;;492342;241;28272;-70
2021/08/04 02:56:13;;;;;;;4.90;4.50;;;14.10;99.90;;;;;;492314;241;28395;-72
2021/08/04 02:58:15;;;;;;;4.30;3.90;;;14.10;99.90;;;;;;492326;241;28406;-70
2021/08/04 03:00:16;;;;;;;5.37;4.87;;;14.10;99.90;;;;;;492340;241;28254;-71
2021/08/04 03:02:17;;;;;;;4.77;4.37;;;14.10;99.90;;;;;;492330;240;28491;-72
2021/08/04 03:04:18;;;;;;;4.57;4.20;;;14.10;99.90;;;;;;492329;241;28237;-71
2021/08/04 03:06:20;;;;;;;5.40;4.90;;;14.10;99.90;;;;;;492336;241;28263;-71
2021/08/04 03:08:21;;;;;;;6.83;6.13;;;14.10;99.90;;;;;;492320;241;28527;-72
2021/08/04 03:10:22;;;;;;;5.43;4.80;;;14.00;99.90;;;;;;492335;241;29291;-71
2021/08/04 03:12:23;;;;;;;5.17;4.67;;;14.00;99.90;;;;;;492327;241;28903;-72
2021/08/04 03:14:25;;;;;;;5.20;4.60;;;14.00;99.90;;;;;;492345;241;28851;-71
2021/08/04 03:16:26;;;;;;;5.40;4.90;;;14.10;99.90;;;;;;492350;241;28929;-71
2021/08/04 03:18:27;;;;;;;5.77;5.27;;;14.10;99.90;;;;;;492328;241;28399;-71
2021/08/04 03:20:28;;;;;;;5.43;4.93;;;14.10;99.90;;;;;;492337;241;28205;-72
2021/08/04 03:22:30;;;;;;;5.90;5.40;;;14.00;99.90;;;;;;492324;241;28284;-71
2021/08/04 03:24:31;;;;;;;5.07;4.67;;;14.00;99.90;;;;;;492327;241;28412;-71
2021/08/04 03:26:32;;;;;;;5.17;4.67;;;14.00;99.90;;;;;;492352;241;28303;-71
2021/08/04 03:28:34;;;;;;;6.00;5.20;;;14.10;99.90;;;;;;492332;241;28611;-70
2021/08/04 03:30:35;;;;;;;5.93;5.40;;;14.00;99.90;;;;;;492346;241;28269;-71
2021/08/04 03:32:36;;;;;;;5.70;5.20;;;14.00;99.90;;;;;;492310;241;28483;-71
2021/08/04 03:34:37;;;;;;;6.53;4.80;;;14.00;99.90;;;;;;492284;241;28844;-71
2021/08/04 03:36:39;;;;;;;5.63;5.13;;;14.00;99.90;;;;;;492306;241;28510;-72
2021/08/04 03:38:40;;;;;;;4.97;4.57;;;14.00;99.90;;;;;;492326;241;28397;-70
2021/08/04 03:40:41;;;;;;;4.77;4.37;;;14.00;99.90;;;;;;492322;241;28433;-70
2021/08/04 03:42:42;;;;;;;5.90;5.30;;;14.00;99.90;;;;;;492309;241;28416;-70
2021/08/04 03:44:44;;;;;;;5.37;4.87;;;14.00;99.90;;;;;;492328;241;28895;-71
2021/08/04 03:46:47;;;;;;;6.00;5.30;;;14.00;99.90;;;;;;492343;241;29248;-71
2021/08/04 03:48:46;;;;;;;5.07;4.57;;;14.00;99.90;;;;;;492195;241;28872;-70
2021/08/04 03:50:47;;;;;;;5.70;5.10;;;14.00;99.90;;;;;;492319;241;29258;-70
2021/08/04 03:52:49;;;;;;;4.97;4.50;;;14.00;99.90;;;;;;492304;241;28405;-71
2021/08/04 03:54:50;;;;;;;5.00;4.50;;;14.00;99.90;;;;;;492336;241;28415;-70
2021/08/04 03:56:51;;;;;;;5.67;5.17;;;13.90;99.90;;;;;;492344;241;28474;-70
2021/08/04 03:58:52;;;;;;;5.53;5.03;;;14.00;99.90;;;;;;492325;241;28528;-70
2021/08/04 04:00:54;;;;;;;5.67;4.70;;;14.00;99.90;;;;;;492323;241;28367;-72
2021/08/04 04:02:55;;;;;;;5.00;4.60;;;14.00;99.90;;;;;;492317;241;28288;-70
2021/08/04 04:04:56;;;;;;;5.00;4.60;;;14.00;99.90;;;;;;492326;241;28590;-70
2021/08/04 04:06:57;;;;;;;5.40;4.83;;;14.00;99.90;;;;;;492337;241;28477;-70
2021/08/04 04:08:59;;;;;;;6.07;5.47;;;14.00;99.90;;;;;;492333;241;28749;-70
2021/08/04 04:11:00;;;;;;;5.77;5.17;;;13.90;99.90;;;;;;492336;241;28999;-70
2021/08/04 04:13:01;;;;;;;5.93;5.37;;;14.00;99.90;;;;;;492300;241;28796;-70
2021/08/04 04:15:02;;;;;;;5.70;5.07;;;14.00;99.90;;;;;;491941;241;28848;-70
2021/08/04 04:17:04;;;;;;;7.23;5.60;;;14.00;99.90;;;;;;492039;241;28882;-70
2021/08/04 04:19:07;;;;;;;5.40;4.90;;;14.00;99.90;;;;;;492319;241;28286;-72
2021/08/04 04:21:06;;;;;;;6.70;5.20;;;14.00;99.90;;;;;;492197;241;28264;-71
2021/08/04 04:23:07;;;;;;;7.23;5.60;;;13.90;99.90;;;;;;492298;241;28412;-72
2021/08/04 04:25:09;;;;;;;6.00;5.03;;;14.00;99.90;;;;;;492319;241;28544;-70
2021/08/04 04:27:10;;;;;;;6.30;5.60;;;14.00;99.90;;;;;;492317;241;28432;-70
2021/08/04 04:29:11;;;;;;;7.60;5.07;;;14.00;99.90;;;;;;492321;241;28639;-70
2021/08/04 04:31:12;;;;;;;6.03;4.67;;;14.00;99.90;;;;;;492328;241;28316;-71
2021/08/04 04:33:14;;;;;;;6.87;4.40;;;14.00;99.90;;;;;;492286;241;28549;-72
2021/08/04 04:35:15;;;;;;;5.10;4.60;;;14.00;99.90;;;;;;492338;241;28799;-70
2021/08/04 04:37:16;;;;;;;5.67;4.70;;;14.00;99.90;;;;;;492297;241;28827;-69
2021/08/04 04:39:17;;;;;;;5.03;4.53;;;14.10;99.90;;;;;;492309;241;28875;-70
2021/08/04 04:41:19;;;;;;;5.40;4.60;;;14.10;99.90;;;;;;492322;241;28415;-71
2021/08/04 04:43:20;;;;;;;4.87;4.37;;;14.10;99.90;;;;;;492307;241;28245;-71
2021/08/04 04:45:21;;;;;;;5.57;4.93;;;14.10;99.90;;;;;;492332;241;28408;-70
2021/08/04 04:47:22;;;;;;;4.77;4.37;;;14.00;99.90;;;;;;492301;241;28883;-72
2021/08/04 04:49:24;;;;;;;5.53;5.03;;;14.00;99.90;;;;;;492324;241;28102;-70
2021/08/04 04:51:25;;;;;;;4.63;4.23;;;14.00;99.90;;;;;;492322;241;28131;-70
2021/08/04 04:53:27;;;;;;;5.07;4.57;;;14.00;99.90;;;;;;492300;241;28182;-71
2021/08/04 04:55:27;;;;;;;5.80;4.37;;;14.00;99.90;;;;;;492330;241;28351;-70
2021/08/04 04:57:29;;;;;;;4.17;3.77;;;14.00;99.90;;;;;;492322;241;28486;-70
2021/08/04 04:59:30;;;;;;;6.00;5.50;;;14.10;99.90;;;;;;492316;241;28973;-70
2021/08/04 05:01:31;;;;;;;5.20;4.70;;;14.10;99.90;;;;;;492333;241;29626;-70
2021/08/04 05:03:32;;;;;;;5.20;4.70;;;14.10;99.90;;;;;;492237;241;28911;-70
2021/08/04 05:05:34;;;;;;;4.63;4.23;;;14.10;99.90;;;;;;492274;241;28379;-72
2021/08/04 05:07:35;;;;;;;8.13;4.97;;;14.10;99.90;;;;;;492314;241;28858;-71
2021/08/04 05:09:37;;;;;;;4.80;4.40;;;14.10;99.90;;;;;;492318;241;28306;-70
2021/08/04 05:11:37;;;;;;;4.43;4.13;;;14.20;99.90;;;;;;492250;241;28431;-72
2021/08/04 05:13:39;;;;;;;5.10;4.70;;;14.10;99.90;;;;;;492285;241;28377;-72
2021/08/04 05:15:40;;;;;;;4.90;4.50;;;14.20;99.90;;;;;;492324;240;28300;-72
2021/08/04 05:17:41;;;;;;;5.53;5.03;;;14.20;99.90;;;;;;492342;240;28611;-71
2021/08/04 05:19:42;;;;;;;5.10;4.70;;;14.20;99.90;;;;;;492309;241;28295;-72
2021/08/04 05:21:44;;;;;;;4.67;4.27;;;14.20;99.90;;;;;;492287;237;28555;-70
2021/08/04 05:23:45;;;;;;;4.60;4.30;;;14.20;99.90;;;;;;492266;241;29393;-70
2021/08/04 05:25:46;;;;;;;5.30;4.90;;;14.20;99.90;;;;;;492261;241;29333;-69
2021/08/04 05:27:48;;;;;;;4.50;4.20;;;14.20;99.90;;;;;;492279;241;28933;-69
2021/08/04 05:29:49;;;;;;;5.30;4.80;;;14.30;99.90;;;;;;492244;241;28934;-70
2021/08/04 05:31:50;;;;;;;4.73;4.33;;;14.30;99.90;;;;;;492249;241;28775;-72
2021/08/04 05:33:51;;;;;;;4.90;4.50;;;14.30;99.90;;;;;;492275;241;28417;-72
2021/08/04 05:35:52;;;;;;;4.40;4.00;;;14.40;99.90;;;;;;492281;241;28832;-72
2021/08/04 05:37:54;;;;;;;4.90;4.17;;;14.30;99.90;;;;;;492280;241;28695;-71
2021/08/04 05:39:55;;;;;;;4.23;3.90;;;14.30;99.90;;;;;;492305;241;28312;-72
2021/08/04 05:41:56;;;;;;;4.13;3.73;;;14.30;99.90;;;;;;492317;241;28261;-72
2021/08/04 05:43:57;;;;;;;4.40;4.10;;;14.40;99.90;;;;;;492298;241;28465;-71
2021/08/04 05:45:59;;;;;;;5.23;4.33;;;14.30;99.90;;;;;;492223;241;28913;-71
2021/08/04 05:48:00;;;;;;;5.07;4.67;;;14.30;99.90;;;;;;492314;240;28816;-72
2021/08/04 05:50:01;;;;;;;5.20;4.80;;;14.30;99.90;;;;;;492310;241;29328;-70
2021/08/04 05:52:02;;;;;;;5.93;5.33;;;14.40;99.90;;;;;;492311;241;28878;-72
2021/08/04 05:54:04;;;;;;;6.93;5.07;;;14.50;99.90;;;;;;492300;241;29051;-70
2021/08/04 05:56:05;;;;;;;4.33;4.03;;;14.50;99.90;;;;;;492308;241;28447;-73
2021/08/04 05:58:06;;;;;;;4.63;4.27;;;14.60;99.90;;;;;;492315;241;28794;-72
2021/08/04 06:00:07;;;;;;;4.60;4.20;;;14.60;99.90;;;;;;492293;241;28806;-72
2021/08/04 06:02:09;;;;;;;5.07;4.67;;;14.70;99.90;;;;;;492312;241;28396;-71
2021/08/04 06:04:10;;;;;;;5.43;4.93;;;14.60;99.90;;;;;;492296;241;28783;-71
2021/08/04 06:06:11;;;;;;;5.93;5.40;;;14.60;99.90;;;;;;492305;241;28520;-72
2021/08/04 06:08:12;;;;;;;5.63;5.13;;;14.50;99.90;;;;;;492298;241;28811;-71
2021/08/04 06:10:14;;;;;;;4.90;4.50;;;14.60;99.90;;;;;;492319;241;28877;-71
2021/08/04 06:12:15;;;;;;;5.97;5.47;;;14.70;99.90;;;;;;492340;241;29280;-71
2021/08/04 06:14:16;;;;;;;5.30;4.90;;;14.70;99.90;;;;;;492281;241;29157;-71
2021/08/04 06:16:17;;;;;;;5.40;5.00;;;14.80;99.90;;;;;;492328;241;29368;-71
2021/08/04 06:18:19;;;;;;;5.33;4.83;;;14.90;99.90;;;;;;492307;241;29242;-71
2021/08/04 06:20:20;;;;;;;5.53;5.10;;;14.90;99.90;;;;;;492319;241;28859;-72
2021/08/04 06:22:21;;;;;;;5.50;5.00;;;14.90;99.90;;;;;;492192;241;28848;-73
2021/08/04 06:24:22;;;;;;;5.70;5.20;;;14.90;99.90;;;;;;492289;241;28818;-72
2021/08/04 06:26:24;;;;;;;5.33;4.87;;;15.00;99.90;;;;;;492339;241;28819;-69
2021/08/04 06:28:25;;;;;;;5.53;5.13;;;15.00;99.90;;;;;;492338;241;28779;-70
2021/08/04 06:30:26;;;;;;;5.80;5.13;;;14.90;99.90;;;;;;492330;240;28825;-69
2021/08/04 06:32:27;;;;;;;5.63;5.13;;;14.80;99.90;;;;;;492347;241;28871;-72
2021/08/04 06:34:29;;;;;;;5.63;5.13;;;14.80;99.90;;;;;;492320;241;28783;-72
2021/08/04 06:36:30;;;;;;;5.70;4.70;;;14.80;99.90;;;;;;492353;241;29319;-71
2021/08/04 06:38:31;;;;;;;4.80;4.40;;;14.80;99.90;;;;;;492336;241;29332;-72
2021/08/04 06:40:32;;;;;;;5.47;5.00;;;14.80;99.90;;;;;;492355;241;29270;-72
2021/08/04 06:42:34;;;;;;;5.80;5.30;;;14.90;99.90;;;;;;492368;241;30140;-71
2021/08/04 06:44:35;;;;;;;6.40;4.40;;;14.90;99.90;;;;;;492317;241;28806;-72
2021/08/04 06:46:36;;;;;;;5.30;4.90;;;15.00;99.90;;;;;;492329;241;28894;-72
2021/08/04 06:48:37;;;;;;;4.80;4.40;;;15.00;99.90;;;;;;492356;241;28769;-72
2021/08/04 06:50:39;;;;;;;4.90;4.50;;;15.10;99.90;;;;;;492334;241;28823;-72
2021/08/04 06:52:40;;;;;;;5.20;4.80;;;15.10;99.90;;;;;;492311;241;28773;-72
2021/08/04 06:54:41;;;;;;;4.67;4.27;;;15.20;99.90;;;;;;492105;241;28796;-72
2021/08/04 06:56:42;;;;;;;5.13;4.73;;;15.20;99.90;;;;;;492358;241;28941;-72
2021/08/04 06:58:44;;;;;;;7.33;6.73;;;15.20;99.90;;;;;;492009;241;28821;-71
2021/08/04 07:00:45;;;;;;;5.27;4.77;;;15.10;99.90;;;;;;491558;241;28821;-69
2021/08/04 07:02:49;;;;;;;4.70;4.30;;;15.10;99.90;;;;;;492011;241;29993;-72
2021/08/04 07:04:47;;;;;;;4.90;4.50;;;15.10;99.90;;;;;;491873;241;29275;-70
2021/08/04 07:06:49;;;;;;;6.70;4.57;;;15.20;99.90;;;;;;492326;241;29287;-70
2021/08/04 07:08:50;;;;;;;5.70;4.63;;;15.40;99.90;;;;;;492332;241;28771;-72
2021/08/04 07:10:51;;;;;;;5.10;4.50;;;15.40;99.90;;;;;;492338;241;28815;-73
2021/08/04 07:12:53;;;;;;;4.93;4.57;;;15.30;99.90;;;;;;492322;241;28802;-71
2021/08/04 07:14:54;;;;;;;4.77;4.37;;;15.40;99.90;;;;;;492295;241;28820;-72
2021/08/04 07:16:55;;;;;;;4.43;4.13;;;15.30;99.90;;;;;;492164;241;28811;-72
2021/08/04 07:18:56;;;;;;;4.83;4.43;;;15.40;99.90;;;;;;492294;241;28790;-72
2021/08/04 07:20:58;;;;;;;4.40;4.10;;;15.40;99.90;;;;;;492312;241;28822;-73
2021/08/04 07:22:59;;;;;;;5.23;4.70;;;15.40;99.90;;;;;;492322;241;28780;-72
2021/08/04 07:25:00;;;;;;;4.33;4.03;;;15.50;99.90;;;;;;492324;241;28775;-72
2021/08/04 07:27:01;;;;;;;4.70;4.30;;;15.60;99.90;;;;;;492324;241;29283;-72
2021/08/04 07:29:03;;;;;;;4.90;4.13;;;15.70;99.90;;;;;;492326;241;29318;-72
2021/08/04 07:31:04;;;;;;;4.50;4.10;;;15.60;99.90;;;;;;492314;241;29312;-72
2021/08/04 07:33:05;;;;;;;4.43;4.07;;;15.70;99.90;;;;;;492301;241;29480;-72
2021/08/04 07:35:06;;;;;;;4.43;4.03;;;15.80;99.90;;;;;;492321;241;28763;-70
2021/08/04 07:37:08;;;;;;;4.77;4.20;;;15.80;99.90;;;;;;492314;241;28822;-71
2021/08/04 07:39:09;;;;;;;3.70;3.40;;;15.80;99.90;;;;;;492300;241;28787;-70
2021/08/04 07:41:10;;;;;;;4.10;3.80;;;15.80;99.90;;;;;;492336;241;28792;-70
2021/08/04 07:43:11;;;;;;;3.90;3.60;;;15.80;99.90;;;;;;492274;241;28825;-71
2021/08/04 07:45:13;;;;;;;4.53;4.23;;;15.80;99.90;;;;;;492317;241;28886;-72
2021/08/04 07:47:14;;;;;;;4.67;4.27;;;15.70;99.90;;;;;;492332;241;28823;-70
2021/08/04 07:49:15;;;;;;;3.90;3.50;;;15.70;99.90;;;;;;492325;241;28878;-70
2021/08/04 07:51:17;;;;;;;3.67;3.37;;;15.80;99.90;;;;;;492320;241;29273;-69
2021/08/04 07:53:18;;;;;;;4.00;3.70;;;15.80;99.90;;;;;;492303;241;29382;-71
2021/08/04 07:55:19;;;;;;;4.33;4.03;;;15.80;99.90;;;;;;492325;241;29234;-70
2021/08/04 07:57:20;;;;;;;4.60;4.20;;;16.00;99.90;;;;;;492351;241;28799;-69
2021/08/04 07:59:21;;;;;;;4.07;3.77;;;16.30;99.90;;;;;;492337;241;28768;-72
2021/08/04 08:01:23;;;;;;;4.60;4.30;;;16.20;99.90;;;;;;492360;241;28804;-71
2021/08/04 08:03:24;;;;;;;4.23;3.93;;;16.20;99.90;;;;;;492338;241;28818;-71
2021/08/04 08:05:25;;;;;;;4.43;4.13;;;16.10;99.90;;;;;;492359;241;28788;-71
2021/08/04 08:07:26;;;;;;;4.40;4.00;;;16.10;99.90;;;;;;492353;241;28879;-71
2021/08/04 08:09:28;;;;;;;3.77;3.57;;;16.30;99.90;;;;;;492344;241;28755;-71
2021/08/04 08:11:29;;;;;;;4.30;3.80;;;16.20;99.90;;;;;;492328;241;28871;-71
2021/08/04 08:13:31;;;;;;;4.13;3.83;;;16.30;99.90;;;;;;492336;241;28843;-71
2021/08/04 08:15:31;;;;;;;3.87;3.57;;;16.20;99.90;;;;;;492302;241;29255;-71
2021/08/04 08:17:33;;;;;;;4.27;3.93;;;16.10;99.90;;;;;;492317;241;29289;-70
2021/08/04 08:19:34;;;;;;;3.83;3.63;;;16.00;99.90;;;;;;492309;241;29341;-71
2021/08/04 08:21:35;;;;;;;3.93;3.63;;;15.90;99.90;;;;;;492297;241;29395;-71
2021/08/04 08:23:36;;;;;;;4.07;3.67;;;15.90;99.90;;;;;;492314;241;28883;-71
2021/08/04 08:25:38;;;;;;;3.70;3.40;;;16.00;99.90;;;;;;492350;241;28777;-71
2021/08/04 08:27:39;;;;;;;3.30;3.10;;;16.20;99.90;;;;;;492320;241;28876;-72
2021/08/04 08:29:40;;;;;;;4.27;3.57;;;16.30;99.90;;;;;;492313;241;28771;-72
2021/08/04 08:31:41;;;;;;;3.77;3.40;;;16.50;99.90;;;;;;492312;241;28822;-71
2021/08/04 08:33:43;;;;;;;2.97;2.77;;;16.70;99.90;;;;;;492323;241;28913;-70
2021/08/04 08:35:44;;;;;;;3.63;3.33;;;16.80;99.90;;;;;;492309;240;28762;-72
2021/08/04 08:37:45;;;;;;;3.33;3.13;;;16.90;99.90;;;;;;492332;241;28807;-71
2021/08/04 08:39:46;;;;;;;3.57;2.90;;;17.00;99.90;;;;;;492312;241;29967;-72
2021/08/04 08:41:48;;;;;;;3.57;3.27;;;16.90;99.90;;;;;;492286;241;29263;-72
2021/08/04 08:43:49;;;;;;;3.50;3.20;;;16.80;99.90;;;;;;492267;241;29302;-72
2021/08/04 08:45:51;;;;;;;2.93;2.73;;;16.90;99.90;;;;;;492332;241;29338;-71
2021/08/04 08:47:51;;;;;;;3.10;2.90;;;17.10;99.90;;;;;;492315;241;28813;-70
2021/08/04 08:49:53;;;;;;;3.27;2.97;;;17.20;99.90;;;;;;492317;241;28822;-72
2021/08/04 08:51:54;;;;;;;2.87;2.67;;;17.10;99.90;;;;;;492316;241;28767;-70
2021/08/04 08:53:55;;;;;;;3.33;3.03;;;17.10;99.90;;;;;;492306;241;28794;-72
2021/08/04 08:55:56;;;;;;;3.60;3.40;;;17.00;99.90;;;;;;492311;241;28845;-72
2021/08/04 08:57:58;;;;;;;3.40;3.20;;;16.90;99.90;;;;;;492308;241;28836;-72
2021/08/04 08:59:59;;;;;;;3.43;3.23;;;16.90;99.90;;;;;;492315;241;28874;-72
2021/08/04 09:02:00;;;;;;;2.63;2.53;;;16.70;99.90;;;;;;492308;241;28805;-71
2021/08/04 09:04:02;;;;;;;3.10;2.90;;;16.80;99.90;;;;;;492320;241;29370;-69
2021/08/04 09:06:04;;;;;;;3.20;3.00;;;17.00;99.90;;;;;;492321;241;29248;-69
2021/08/04 09:08:04;;;;;;;3.73;3.53;;;16.90;99.90;;;;;;492237;241;29332;-73
2021/08/04 09:10:05;;;;;;;3.03;2.83;;;16.90;99.90;;;;;;491650;241;29356;-70
2021/08/04 09:12:09;;;;;;;3.00;2.80;;;16.80;99.90;;;;;;492318;241;28673;-70
2021/08/04 09:14:08;;;;;;;3.47;3.27;;;16.70;99.90;;;;;;492160;241;28794;-70
2021/08/04 09:16:09;;;;;;;3.23;3.03;;;16.70;99.90;;;;;;492315;241;28859;-70
2021/08/04 09:18:10;;;;;;;5.50;3.40;;;17.00;99.90;;;;;;492286;241;28790;-72
2021/08/04 09:20:11;;;;;;;4.00;3.70;;;17.10;99.90;;;;;;492320;241;28831;-72
2021/08/04 09:22:13;;;;;;;3.40;3.20;;;17.40;99.90;;;;;;492359;241;28808;-71
2021/08/04 09:24:14;;;;;;;3.30;3.00;;;17.60;99.90;;;;;;492306;241;28826;-71
2021/08/04 09:26:15;;;;;;;3.37;3.17;;;17.80;99.90;;;;;;492313;241;28829;-72
2021/08/04 09:28:16;;;;;;;3.33;3.13;;;18.00;99.90;;;;;;492294;241;28872;-73
2021/08/04 09:30:18;;;;;;;3.40;2.97;;;18.00;99.90;;;;;;492298;241;29284;-72
2021/08/04 09:32:19;;;;;;;3.40;3.10;;;18.10;99.90;;;;;;492307;241;29242;-72
2021/08/04 09:34:20;;;;;;;3.00;2.80;;;18.30;99.90;;;;;;492311;241;29320;-70
2021/08/04 09:36:21;;;;;;;2.73;2.53;;;18.40;99.90;;;;;;492320;241;28718;-70
2021/08/04 09:38:23;;;;;;;3.10;2.90;;;18.40;99.90;;;;;;492210;241;28926;-69
2021/08/04 09:40:24;;;;;;;2.90;2.70;;;18.50;99.90;;;;;;492251;241;28889;-70
2021/08/04 09:42:25;;;;;;;3.43;3.13;;;18.60;99.90;;;;;;492275;240;28758;-69
2021/08/04 09:44:26;;;;;;;3.30;3.00;;;18.60;99.90;;;;;;492297;241;28812;-72
2021/08/04 09:46:28;;;;;;;2.93;2.83;;;18.80;99.90;;;;;;491806;241;28803;-71
2021/08/04 09:48:29;;;;;;;3.60;3.40;;;18.80;99.90;;;;;;492322;241;28782;-71
2021/08/04 09:50:30;;;;;;;2.73;2.63;;;18.80;99.90;;;;;;492326;241;28712;-71
2021/08/04 09:52:31;;;;;;;3.10;2.90;;;18.50;99.90;;;;;;492339;241;28777;-71
2021/08/04 09:54:33;;;;;;;3.47;3.27;;;18.50;99.90;;;;;;492315;241;29258;-72
2021/08/04 09:56:34;;;;;;;3.20;3.00;;;18.50;99.90;;;;;;492327;241;29216;-71
2021/08/04 09:58:35;;;;;;;4.07;3.77;;;18.40;99.90;;;;;;492334;241;29319;-71
2021/08/04 10:00:36;;;;;;;3.70;3.50;;;18.50;99.90;;;;;;492327;241;28880;-71
2021/08/04 10:02:38;;;;;;;3.47;3.27;;;18.50;99.90;;;;;;492340;241;28763;-71
2021/08/04 10:04:39;;;;;;;3.10;2.90;;;18.80;99.90;;;;;;492326;241;28897;-71
2021/08/04 10:06:40;;;;;;;3.03;2.83;;;19.10;99.90;;;;;;492327;241;28811;-71
2021/08/04 10:08:41;;;;;;;2.37;2.27;;;19.00;99.90;;;;;;492297;241;28860;-72
2021/08/04 10:10:43;;;;;;;2.40;2.30;;;18.80;99.90;;;;;;492339;241;28903;-71
2021/08/04 10:12:44;;;;;;;3.50;2.47;;;18.50;99.90;;;;;;492317;241;28793;-72
2021/08/04 10:14:45;;;;;;;2.70;2.50;;;18.60;99.90;;;;;;492264;241;28719;-71
2021/08/04 10:16:46;;;;;;;2.67;2.57;;;18.60;99.90;;;;;;492317;241;28814;-71
2021/08/04 10:18:48;;;;;;;2.60;2.40;;;18.60;99.90;;;;;;492310;241;29138;-71
2021/08/04 10:20:49;;;;;;;2.40;2.20;;;18.70;99.90;;;;;;492292;241;29293;-72
2021/08/04 10:22:50;;;;;;;2.43;2.23;;;18.80;99.90;;;;;;492312;241;29129;-71
2021/08/04 10:24:51;;;;;;;2.07;1.90;;;19.00;99.90;;;;;;492293;241;28701;-71
2021/08/04 10:26:53;;;;;;;3.90;2.30;;;19.30;99.90;;;;;;492321;241;28818;-71
2021/08/04 10:28:57;;;;;;;2.37;2.17;;;19.40;99.90;;;;;;492297;241;28869;-71
2021/08/04 10:30:55;;;;;;;1.97;1.87;;;19.10;99.90;;;;;;492060;241;28802;-72